Time;durP1;ratioP1;P1;durP2;ratioP2;P2;SDS_P1;SDS_P2;PMS_P1;PMS_P2;Temp;Humidity;BMP_temperature;BMP_pressure;BME280_temperature;BME280_humidity;BME280_pressure;Samples;Min_cycle;Max_cycle;Signal;HPM_P1;HPM_P2
2023/03/02 00:01:29;;;;;;;241.40;86.72;;;;;;;;;;5029716;28;20293;-43
2023/03/02 00:03:57;;;;;;;246.38;82.40;;;;;;;;;;5036450;28;20466;-41
2023/03/02 00:06:28;;;;;;;245.70;78.57;;;;;;;;;;5038622;28;20124;-44
2023/03/02 00:08:59;;;;;;;247.40;83.47;;;;;;;;;;5038408;28;20049;-42
2023/03/02 00:11:26;;;;;;;232.75;80.93;;;;;;;;;;5041622;28;20045;-42
2023/03/02 00:13:54;;;;;;;202.48;74.78;;;;;;;;;;5032044;28;20565;-42
2023/03/02 00:16:21;;;;;;;234.07;78.78;;;;;;;;;;5037492;28;20044;-42
2023/03/02 00:18:47;;;;;;;209.70;76.50;;;;;;;;;;5039229;28;20167;-42
2023/03/02 00:21:14;;;;;;;203.98;74.63;;;;;;;;;;5034823;28;20033;-44
2023/03/02 00:23:40;;;;;;;206.43;74.32;;;;;;;;;;5038415;28;20079;-42
2023/03/02 00:26:07;;;;;;;195.75;71.90;;;;;;;;;;5032768;28;20041;-42
2023/03/02 00:28:33;;;;;;;204.30;74.70;;;;;;;;;;5040732;28;20067;-42
2023/03/02 00:31:02;;;;;;;199.43;74.15;;;;;;;;;;5036770;28;20049;-44
2023/03/02 00:33:30;;;;;;;230.73;75.13;;;;;;;;;;5018669;28;20510;-41
2023/03/02 00:35:56;;;;;;;202.40;72.20;;;;;;;;;;5035527;28;20044;-42
2023/03/02 00:38:23;;;;;;;211.52;71.32;;;;;;;;;;5038408;28;20362;-42
2023/03/02 00:40:49;;;;;;;204.02;71.53;;;;;;;;;;5037129;28;20053;-42
2023/03/02 00:43:16;;;;;;;230.07;77.10;;;;;;;;;;5041861;28;20043;-41
2023/03/02 00:45:43;;;;;;;195.20;70.07;;;;;;;;;;5037960;28;20045;-41
2023/03/02 00:48:09;;;;;;;225.75;72.57;;;;;;;;;;5038180;28;20041;-43
2023/03/02 00:50:39;;;;;;;211.10;72.25;;;;;;;;;;5035537;28;20505;-42
2023/03/02 00:53:07;;;;;;;219.80;71.70;;;;;;;;;;5041396;28;20109;-42
2023/03/02 00:55:34;;;;;;;225.52;85.82;;;;;;;;;;5038411;28;20037;-41
2023/03/02 00:58:01;;;;;;;223.45;79.05;;;;;;;;;;5036951;28;20037;-42
2023/03/02 01:00:29;;;;;;;255.57;88.07;;;;;;;;;;5035790;28;20053;-42
2023/03/02 01:03:00;;;;;;;240.82;83.22;;;;;;;;;;5031073;28;20067;-54
2023/03/02 01:05:27;;;;;;;207.18;80.45;;;;;;;;;;5036379;28;20040;-54
2023/03/02 01:07:53;;;;;;;246.90;84.45;;;;;;;;;;5036473;28;20405;-51
2023/03/02 01:10:20;;;;;;;240.82;82.38;;;;;;;;;;5036568;28;20048;-55
2023/03/02 01:12:46;;;;;;;213.13;81.32;;;;;;;;;;5037678;28;20041;-50
2023/03/02 01:15:13;;;;;;;221.55;75.68;;;;;;;;;;5036377;28;20052;-52
2023/03/02 01:17:41;;;;;;;193.85;75.47;;;;;;;;;;5036287;28;20049;-53
2023/03/02 01:20:08;;;;;;;205.55;74.07;;;;;;;;;;5039790;28;20096;-53
2023/03/02 01:22:35;;;;;;;221.15;76.93;;;;;;;;;;5037158;28;20041;-54
2023/03/02 01:25:02;;;;;;;193.13;68.95;;;;;;;;;;5033071;28;20045;-54
2023/03/02 01:27:28;;;;;;;215.18;74.72;;;;;;;;;;5038623;28;20114;-52
2023/03/02 01:29:55;;;;;;;216.10;73.68;;;;;;;;;;5037122;28;20099;-50
2023/03/02 01:32:21;;;;;;;210.82;71.10;;;;;;;;;;5037067;28;20040;-50
2023/03/02 01:34:48;;;;;;;205.57;69.00;;;;;;;;;;5040380;28;20080;-52
2023/03/02 01:37:14;;;;;;;170.90;66.60;;;;;;;;;;5035528;28;20041;-55
2023/03/02 01:39:41;;;;;;;207.15;63.55;;;;;;;;;;5035241;28;20052;-54
2023/03/02 01:42:10;;;;;;;191.80;67.72;;;;;;;;;;5048455;28;20586;-52
2023/03/02 01:44:47;;;;;;;164.13;60.30;;;;;;;;;;5039819;28;20115;-52
2023/03/02 01:47:27;;;;;;;194.20;60.58;;;;;;;;;;5037509;28;20049;-56
2023/03/02 01:50:10;;;;;;;215.93;62.25;;;;;;;;;;5020954;28;20045;-49
2023/03/02 01:52:38;;;;;;;174.95;58.72;;;;;;;;;;5038053;28;20079;-56
2023/03/02 01:55:07;;;;;;;166.77;56.20;;;;;;;;;;5036395;28;20501;-51
2023/03/02 01:57:42;;;;;;;175.07;51.20;;;;;;;;;;5036779;28;20049;-54
2023/03/02 02:00:19;;;;;;;157.95;53.38;;;;;;;;;;5041933;28;20048;-54
2023/03/02 02:02:46;;;;;;;205.95;55.08;;;;;;;;;;5041685;28;20136;-53
2023/03/02 02:05:17;;;;;;;188.80;53.67;;;;;;;;;;5040108;28;20403;-52
2023/03/02 02:07:43;;;;;;;149.20;47.65;;;;;;;;;;5044428;28;20075;-55
2023/03/02 02:10:10;;;;;;;175.73;50.45;;;;;;;;;;5038720;28;20056;-52
2023/03/02 02:12:37;;;;;;;160.27;49.22;;;;;;;;;;5039869;28;20132;-54
2023/03/02 02:15:04;;;;;;;158.23;46.60;;;;;;;;;;5037928;28;20037;-54
2023/03/02 02:17:31;;;;;;;179.15;52.08;;;;;;;;;;5042782;28;20037;-53
2023/03/02 02:20:01;;;;;;;164.95;50.10;;;;;;;;;;5035730;28;20045;-50
2023/03/02 02:22:47;;;;;;;157.43;48.85;;;;;;;;;;5031276;28;20048;-51
2023/03/02 02:25:21;;;;;;;133.32;45.47;;;;;;;;;;5037477;28;20044;-56
2023/03/02 02:27:48;;;;;;;164.25;46.70;;;;;;;;;;5040060;28;20068;-55
2023/03/02 02:30:15;;;;;;;184.13;45.90;;;;;;;;;;5040748;28;20059;-54
2023/03/02 02:32:43;;;;;;;138.40;42.47;;;;;;;;;;5043206;28;20483;-53
2023/03/02 02:35:13;;;;;;;150.73;41.55;;;;;;;;;;5034102;28;20033;-54
2023/03/02 02:37:42;;;;;;;137.32;39.45;;;;;;;;;;5022505;28;20061;-57
2023/03/02 02:40:17;;;;;;;148.77;40.53;;;;;;;;;;5043109;28;20120;-54
2023/03/02 02:42:46;;;;;;;171.98;44.63;;;;;;;;;;5023312;28;20099;-56
2023/03/02 02:45:23;;;;;;;136.23;39.40;;;;;;;;;;5040077;28;20107;-55
2023/03/02 02:47:51;;;;;;;129.82;37.97;;;;;;;;;;5038868;28;20041;-56
2023/03/02 02:50:20;;;;;;;144.45;38.92;;;;;;;;;;5040960;28;20037;-57
2023/03/02 02:52:50;;;;;;;127.55;40.40;;;;;;;;;;5037930;28;20041;-56
2023/03/02 02:55:19;;;;;;;175.85;41.97;;;;;;;;;;5033310;28;20039;-42
2023/03/02 02:57:48;;;;;;;165.23;42.03;;;;;;;;;;5035080;28;20057;-42
2023/03/02 03:00:17;;;;;;;138.50;41.28;;;;;;;;;;5041067;28;20060;-42
2023/03/02 03:02:46;;;;;;;169.82;43.78;;;;;;;;;;5039070;28;20521;-42
2023/03/02 03:05:13;;;;;;;128.90;38.47;;;;;;;;;;5039633;28;20506;-42
2023/03/02 03:07:40;;;;;;;170.98;44.47;;;;;;;;;;5039743;28;20144;-43
2023/03/02 03:10:16;;;;;;;165.93;45.67;;;;;;;;;;5038058;28;20120;-42
2023/03/02 03:12:42;;;;;;;143.57;42.60;;;;;;;;;;5035080;28;20045;-43
2023/03/02 03:15:10;;;;;;;148.82;42.78;;;;;;;;;;5040911;28;20568;-43
2023/03/02 03:17:36;;;;;;;159.32;45.33;;;;;;;;;;5036974;28;20075;-43
2023/03/02 03:20:10;;;;;;;123.40;40.40;;;;;;;;;;5038962;28;20128;-42
2023/03/02 03:22:41;;;;;;;164.10;43.92;;;;;;;;;;5041682;28;20475;-43
2023/03/02 03:25:14;;;;;;;134.68;43.20;;;;;;;;;;5037727;28;20042;-42
2023/03/02 03:27:42;;;;;;;161.18;43.92;;;;;;;;;;5038282;28;20175;-42
2023/03/02 03:30:11;;;;;;;157.07;46.75;;;;;;;;;;5038512;28;20052;-43
2023/03/02 03:32:38;;;;;;;158.43;45.45;;;;;;;;;;5041473;28;20144;-43
2023/03/02 03:35:07;;;;;;;136.32;42.08;;;;;;;;;;5038482;28;20125;-42
2023/03/02 03:37:34;;;;;;;153.77;44.60;;;;;;;;;;5038724;28;20038;-42
2023/03/02 03:40:01;;;;;;;156.10;43.92;;;;;;;;;;5037865;28;20033;-43
2023/03/02 03:42:28;;;;;;;199.88;45.78;;;;;;;;;;5037641;28;20045;-42
2023/03/02 03:44:56;;;;;;;185.30;45.78;;;;;;;;;;5037541;28;20051;-43
2023/03/02 03:47:23;;;;;;;134.18;42.60;;;;;;;;;;5040019;28;20042;-42
2023/03/02 03:49:50;;;;;;;174.23;45.53;;;;;;;;;;5039175;28;20041;-43
2023/03/02 03:52:17;;;;;;;169.10;46.50;;;;;;;;;;5021362;28;20095;-42
2023/03/02 03:54:44;;;;;;;161.15;45.53;;;;;;;;;;5038767;28;20077;-43
2023/03/02 03:57:10;;;;;;;206.25;47.72;;;;;;;;;;5032568;28;20073;-55
2023/03/02 03:59:38;;;;;;;164.38;46.17;;;;;;;;;;5036233;28;20083;-54
2023/03/02 04:02:05;;;;;;;157.93;45.92;;;;;;;;;;5037103;28;20460;-51
2023/03/02 04:04:40;;;;;;;170.85;43.45;;;;;;;;;;5039079;28;20042;-50
2023/03/02 04:07:13;;;;;;;135.52;40.45;;;;;;;;;;5035594;28;20521;-53
2023/03/02 04:09:40;;;;;;;137.02;40.15;;;;;;;;;;5036929;28;28105;-52
2023/03/02 04:12:10;;;;;;;160.20;42.05;;;;;;;;;;5038743;28;20045;-54
2023/03/02 04:14:39;;;;;;;106.93;36.67;;;;;;;;;;5038639;28;20087;-57
2023/03/02 04:17:05;;;;;;;132.30;38.63;;;;;;;;;;5053912;28;20493;-53
2023/03/02 04:19:36;;;;;;;130.65;38.85;;;;;;;;;;5042161;28;20029;-52
2023/03/02 04:22:03;;;;;;;119.97;36.05;;;;;;;;;;5053098;28;20049;-56
2023/03/02 04:24:31;;;;;;;136.55;37.33;;;;;;;;;;5037046;28;20099;-55
2023/03/02 04:27:00;;;;;;;115.47;34.03;;;;;;;;;;5036835;28;20052;-55
2023/03/02 04:29:27;;;;;;;99.00;31.95;;;;;;;;;;5054584;28;20110;-50
2023/03/02 04:31:54;;;;;;;117.50;34.00;;;;;;;;;;5039198;28;20068;-54
2023/03/02 04:34:24;;;;;;;125.47;35.05;;;;;;;;;;5037178;28;20045;-53
2023/03/02 04:36:51;;;;;;;118.95;32.75;;;;;;;;;;5034905;28;20449;-56
2023/03/02 04:39:18;;;;;;;140.52;35.67;;;;;;;;;;5040364;28;20045;-51
2023/03/02 04:41:48;;;;;;;113.32;32.17;;;;;;;;;;5035525;28;20044;-54
2023/03/02 04:44:15;;;;;;;139.38;35.92;;;;;;;;;;5038321;28;20489;-56
2023/03/02 04:46:42;;;;;;;101.30;29.20;;;;;;;;;;5040725;28;20045;-54
2023/03/02 04:49:10;;;;;;;129.05;31.13;;;;;;;;;;5036334;28;20029;-53
2023/03/02 04:51:37;;;;;;;120.60;31.88;;;;;;;;;;5038448;28;20405;-56
2023/03/02 04:54:12;;;;;;;117.25;31.48;;;;;;;;;;5035275;28;20041;-54
2023/03/02 04:56:38;;;;;;;111.90;32.33;;;;;;;;;;5039285;28;20064;-50
2023/03/02 04:59:04;;;;;;;103.07;30.48;;;;;;;;;;5036060;28;20045;-56
2023/03/02 05:01:31;;;;;;;127.47;34.20;;;;;;;;;;5041547;28;20033;-53
2023/03/02 05:03:58;;;;;;;121.75;32.17;;;;;;;;;;5035962;28;20452;-55
2023/03/02 05:06:28;;;;;;;126.95;33.28;;;;;;;;;;5037649;28;20037;-56
2023/03/02 05:08:58;;;;;;;152.20;37.53;;;;;;;;;;5034790;28;20465;-54
2023/03/02 05:11:25;;;;;;;126.78;34.85;;;;;;;;;;5040915;28;20080;-51
2023/03/02 05:13:53;;;;;;;133.13;35.35;;;;;;;;;;5034226;28;20037;-52
2023/03/02 05:16:20;;;;;;;144.35;36.72;;;;;;;;;;5038103;28;20430;-53
2023/03/02 05:18:46;;;;;;;140.65;36.03;;;;;;;;;;5040779;28;20037;-55
2023/03/02 05:21:14;;;;;;;129.95;35.67;;;;;;;;;;5039466;28;20048;-55
2023/03/02 05:23:40;;;;;;;163.25;42.83;;;;;;;;;;5038765;28;20206;-55
2023/03/02 05:26:07;;;;;;;162.15;45.60;;;;;;;;;;5038878;28;20051;-53
2023/03/02 05:28:34;;;;;;;270.05;69.20;;;;;;;;;;5038989;28;20091;-50
2023/03/02 05:31:01;;;;;;;245.90;61.30;;;;;;;;;;5039201;28;20044;-51
2023/03/02 05:33:28;;;;;;;236.02;63.72;;;;;;;;;;5042118;28;20421;-55
2023/03/02 05:35:55;;;;;;;199.30;51.90;;;;;;;;;;5044419;28;20040;-54
2023/03/02 05:38:22;;;;;;;204.23;51.55;;;;;;;;;;5040883;28;20037;-52
2023/03/02 05:40:48;;;;;;;162.48;46.17;;;;;;;;;;5039012;28;20049;-53
2023/03/02 05:43:17;;;;;;;179.65;49.90;;;;;;;;;;5041291;28;20068;-52
2023/03/02 05:45:43;;;;;;;251.77;60.30;;;;;;;;;;5042321;28;20128;-51
2023/03/02 05:48:11;;;;;;;175.57;51.25;;;;;;;;;;5042229;28;20087;-55
2023/03/02 05:50:40;;;;;;;151.13;43.42;;;;;;;;;;5039586;28;20048;-54
2023/03/02 05:53:07;;;;;;;212.38;53.03;;;;;;;;;;5042581;28;20042;-54
2023/03/02 05:55:35;;;;;;;150.07;44.17;;;;;;;;;;5042899;28;20042;-55
2023/03/02 05:58:05;;;;;;;174.85;48.47;;;;;;;;;;5036371;28;20128;-53
2023/03/02 06:00:31;;;;;;;198.05;50.38;;;;;;;;;;5040452;28;20054;-53
2023/03/02 06:02:57;;;;;;;182.05;47.25;;;;;;;;;;5041902;28;20521;-53
2023/03/02 06:05:24;;;;;;;178.30;46.55;;;;;;;;;;5039980;28;20103;-53
2023/03/02 06:07:50;;;;;;;206.85;45.65;;;;;;;;;;5043687;28;20041;-57
2023/03/02 06:10:17;;;;;;;158.50;43.42;;;;;;;;;;5041273;28;20061;-51
2023/03/02 06:12:43;;;;;;;185.52;45.13;;;;;;;;;;5036048;28;20053;-51
2023/03/02 06:15:10;;;;;;;174.23;46.35;;;;;;;;;;5040318;28;20561;-53
2023/03/02 06:17:36;;;;;;;142.38;42.85;;;;;;;;;;5038359;28;20048;-52
2023/03/02 06:20:09;;;;;;;156.88;43.58;;;;;;;;;;5039133;28;20588;-53
2023/03/02 06:22:40;;;;;;;180.48;43.38;;;;;;;;;;5034184;28;20283;-55
2023/03/02 06:25:19;;;;;;;182.75;47.70;;;;;;;;;;5043015;28;20037;-53
2023/03/02 06:27:50;;;;;;;189.15;45.90;;;;;;;;;;5039411;28;20053;-50
2023/03/02 06:30:17;;;;;;;205.02;48.30;;;;;;;;;;5040857;28;20046;-54
2023/03/02 06:32:44;;;;;;;214.23;49.03;;;;;;;;;;5041450;28;20080;-52
2023/03/02 06:35:11;;;;;;;211.18;50.45;;;;;;;;;;5037553;28;20060;-54
2023/03/02 06:37:38;;;;;;;243.05;50.35;;;;;;;;;;5033741;28;20044;-51
2023/03/02 06:40:09;;;;;;;181.38;47.55;;;;;;;;;;5041629;28;20518;-54
2023/03/02 06:42:36;;;;;;;211.70;50.17;;;;;;;;;;5040358;28;20057;-56
2023/03/02 06:45:03;;;;;;;191.50;50.88;;;;;;;;;;5039163;28;20052;-53
2023/03/02 06:47:30;;;;;;;171.60;45.63;;;;;;;;;;5037163;28;20391;-56
2023/03/02 06:49:56;;;;;;;195.50;48.53;;;;;;;;;;5043378;28;20768;-56
2023/03/02 06:52:23;;;;;;;172.85;44.80;;;;;;;;;;5041131;28;20041;-54
2023/03/02 06:54:49;;;;;;;167.32;44.33;;;;;;;;;;5040416;28;20034;-51
2023/03/02 06:57:16;;;;;;;168.75;46.20;;;;;;;;;;5039880;28;20069;-51
2023/03/02 06:59:42;;;;;;;190.02;47.75;;;;;;;;;;5042685;28;20044;-54
2023/03/02 07:02:09;;;;;;;186.00;46.38;;;;;;;;;;5032853;28;20037;-55
2023/03/02 07:04:35;;;;;;;231.52;53.92;;;;;;;;;;5038935;28;20045;-55
2023/03/02 07:07:02;;;;;;;203.80;52.53;;;;;;;;;;5040479;28;20056;-52
2023/03/02 07:09:31;;;;;;;187.00;48.95;;;;;;;;;;5040632;28;20049;-52
2023/03/02 07:11:57;;;;;;;193.10;49.75;;;;;;;;;;5034695;28;20072;-54
2023/03/02 07:14:24;;;;;;;168.70;48.30;;;;;;;;;;5038607;28;20151;-55
2023/03/02 07:16:50;;;;;;;161.50;47.25;;;;;;;;;;5040024;28;20482;-56
2023/03/02 07:19:18;;;;;;;204.38;51.08;;;;;;;;;;5037950;28;20091;-52
2023/03/02 07:21:44;;;;;;;228.85;53.30;;;;;;;;;;5039672;28;20045;-57
2023/03/02 07:24:11;;;;;;;200.07;51.50;;;;;;;;;;5041897;28;20051;-55
2023/03/02 07:26:37;;;;;;;170.15;47.60;;;;;;;;;;5039739;28;20041;-56
2023/03/02 07:29:03;;;;;;;182.20;47.45;;;;;;;;;;5035910;28;20041;-55
2023/03/02 07:31:30;;;;;;;177.75;48.88;;;;;;;;;;5033541;28;20108;-42
2023/03/02 07:33:57;;;;;;;208.60;52.17;;;;;;;;;;5038810;28;20083;-42
2023/03/02 07:36:25;;;;;;;207.95;54.25;;;;;;;;;;5040541;28;20044;-41
2023/03/02 07:38:51;;;;;;;179.25;52.47;;;;;;;;;;5036507;28;20037;-42
2023/03/02 07:41:18;;;;;;;238.40;54.30;;;;;;;;;;5033946;28;20041;-42
2023/03/02 07:43:44;;;;;;;203.90;53.58;;;;;;;;;;5036581;28;20096;-42
2023/03/02 07:46:11;;;;;;;226.63;54.72;;;;;;;;;;5039486;28;20047;-41
2023/03/02 07:48:37;;;;;;;206.88;50.83;;;;;;;;;;5037553;28;20445;-42
2023/03/02 07:51:04;;;;;;;158.90;45.10;;;;;;;;;;5040013;28;20056;-41
2023/03/02 07:53:31;;;;;;;156.75;46.25;;;;;;;;;;5038924;28;20090;-42
2023/03/02 07:55:57;;;;;;;173.43;48.22;;;;;;;;;;5040925;28;20441;-42
2023/03/02 07:58:24;;;;;;;191.60;48.88;;;;;;;;;;5037201;28;20041;-43
2023/03/02 08:00:50;;;;;;;186.15;47.83;;;;;;;;;;5038922;28;20473;-43
2023/03/02 08:03:17;;;;;;;154.65;44.15;;;;;;;;;;5037999;28;20047;-43
2023/03/02 08:05:43;;;;;;;149.07;44.65;;;;;;;;;;5040764;28;20045;-43
2023/03/02 08:08:10;;;;;;;159.48;43.17;;;;;;;;;;5036982;28;20045;-41
2023/03/02 08:10:36;;;;;;;141.80;39.97;;;;;;;;;;5037156;28;20571;-43
2023/03/02 08:13:03;;;;;;;157.57;41.97;;;;;;;;;;5034187;28;20048;-42
2023/03/02 08:15:30;;;;;;;136.43;40.33;;;;;;;;;;5040047;28;20045;-43
2023/03/02 08:17:56;;;;;;;136.45;40.70;;;;;;;;;;5035589;28;20055;-43
2023/03/02 08:20:23;;;;;;;193.63;44.95;;;;;;;;;;5034641;28;20049;-43
2023/03/02 08:22:50;;;;;;;129.73;38.42;;;;;;;;;;5035978;28;20036;-43
2023/03/02 08:25:17;;;;;;;134.75;40.97;;;;;;;;;;5037454;28;20044;-43
2023/03/02 08:27:44;;;;;;;183.02;44.95;;;;;;;;;;5038579;28;20033;-42
2023/03/02 08:30:11;;;;;;;152.43;41.88;;;;;;;;;;5037613;28;20125;-43
2023/03/02 08:32:38;;;;;;;117.85;40.17;;;;;;;;;;5031965;28;20068;-55
2023/03/02 08:35:05;;;;;;;152.55;43.70;;;;;;;;;;5032501;28;20045;-53
2023/03/02 08:37:32;;;;;;;132.63;41.20;;;;;;;;;;5041280;28;20064;-54
2023/03/02 08:39:59;;;;;;;147.93;44.33;;;;;;;;;;5037228;28;20033;-56
2023/03/02 08:42:25;;;;;;;170.93;45.00;;;;;;;;;;5039043;28;20069;-58
2023/03/02 08:44:52;;;;;;;127.95;42.92;;;;;;;;;;5036175;28;20050;-58
2023/03/02 08:47:19;;;;;;;121.93;42.33;;;;;;;;;;5040448;28;20048;-55
2023/03/02 08:49:45;;;;;;;162.38;44.80;;;;;;;;;;5037128;28;20064;-57
2023/03/02 08:52:14;;;;;;;135.55;41.15;;;;;;;;;;5038285;28;20039;-56
2023/03/02 08:54:40;;;;;;;146.93;44.72;;;;;;;;;;5037295;28;20110;-57
2023/03/02 08:57:09;;;;;;;142.48;42.13;;;;;;;;;;5038042;28;20052;-56
2023/03/02 08:59:35;;;;;;;142.30;44.88;;;;;;;;;;5037942;28;20041;-56
2023/03/02 09:02:02;;;;;;;125.80;40.33;;;;;;;;;;5036624;28;20049;-57
2023/03/02 09:04:28;;;;;;;160.93;43.28;;;;;;;;;;5038549;28;20037;-58
2023/03/02 09:06:55;;;;;;;104.80;37.60;;;;;;;;;;5035596;28;20045;-57
2023/03/02 09:09:22;;;;;;;123.70;39.70;;;;;;;;;;5041448;28;20056;-57
2023/03/02 09:11:48;;;;;;;146.98;42.83;;;;;;;;;;5045283;28;20051;-56
2023/03/02 09:14:15;;;;;;;143.55;48.35;;;;;;;;;;5032062;28;20069;-55
2023/03/02 09:16:41;;;;;;;136.38;47.00;;;;;;;;;;5041582;28;20127;-56
2023/03/02 09:19:08;;;;;;;156.43;44.58;;;;;;;;;;5037693;28;20098;-57
2023/03/02 09:21:35;;;;;;;149.90;43.90;;;;;;;;;;5042808;28;20059;-55
2023/03/02 09:24:01;;;;;;;137.82;43.33;;;;;;;;;;5041609;28;20096;-56
2023/03/02 09:26:28;;;;;;;151.07;45.90;;;;;;;;;;5040657;28;20041;-58
2023/03/02 09:28:54;;;;;;;116.93;38.95;;;;;;;;;;5042899;28;20537;-57
2023/03/02 09:31:21;;;;;;;82.82;29.58;;;;;;;;;;5039629;28;20048;-58
2023/03/02 09:33:48;;;;;;;130.82;32.35;;;;;;;;;;5041007;28;20079;-57
2023/03/02 09:36:19;;;;;;;95.68;30.50;;;;;;;;;;5038024;28;20041;-57
2023/03/02 09:38:46;;;;;;;97.60;31.90;;;;;;;;;;5041126;28;20040;-56
2023/03/02 09:41:19;;;;;;;109.88;36.03;;;;;;;;;;5037700;28;20041;-57
2023/03/02 09:44:00;;;;;;;119.80;34.10;;;;;;;;;;5044534;28;20048;-55
2023/03/02 09:46:43;;;;;;;117.65;33.75;;;;;;;;;;5037120;28;20041;-52
2023/03/02 09:49:15;;;;;;;123.15;34.47;;;;;;;;;;5035653;28;20045;-57
2023/03/02 09:52:00;;;;;;;136.80;34.83;;;;;;;;;;5040233;28;20418;-56
2023/03/02 09:54:27;;;;;;;98.50;32.60;;;;;;;;;;5038069;28;20045;-57
2023/03/02 09:56:56;;;;;;;111.53;32.58;;;;;;;;;;5041760;28;20060;-56
2023/03/02 09:59:48;;;;;;;98.40;30.65;;;;;;;;;;5039916;28;20466;-56
2023/03/02 10:02:22;;;;;;;117.25;34.85;;;;;;;;;;5040747;28;20054;-54
2023/03/02 10:04:52;;;;;;;96.25;31.83;;;;;;;;;;5034812;28;20049;-57
2023/03/02 10:07:23;;;;;;;179.45;39.10;;;;;;;;;;5036140;28;20673;-43
2023/03/02 10:09:50;;;;;;;134.20;34.28;;;;;;;;;;5038068;28;20065;-43
2023/03/02 10:12:19;;;;;;;119.90;35.95;;;;;;;;;;5037054;28;20038;-43
2023/03/02 10:14:50;;;;;;;109.38;35.95;;;;;;;;;;5039873;28;20448;-43
2023/03/02 10:17:26;;;;;;;121.90;33.58;;;;;;;;;;5036401;28;20095;-42
2023/03/02 10:19:56;;;;;;;104.43;31.83;;;;;;;;;;5037457;28;20106;-43
2023/03/02 10:22:27;;;;;;;134.52;36.05;;;;;;;;;;5039777;28;20055;-43
2023/03/02 10:25:07;;;;;;;121.45;34.10;;;;;;;;;;5039997;28;20041;-43
2023/03/02 10:27:41;;;;;;;159.15;35.00;;;;;;;;;;5036537;28;20045;-42
2023/03/02 10:30:20;;;;;;;106.60;30.70;;;;;;;;;;5038752;28;20044;-43
2023/03/02 10:32:48;;;;;;;126.00;31.23;;;;;;;;;;5036819;28;20051;-42
2023/03/02 10:35:16;;;;;;;107.57;32.47;;;;;;;;;;5041548;28;20037;-42
2023/03/02 10:37:43;;;;;;;92.50;30.67;;;;;;;;;;5041751;28;20418;-43
2023/03/02 10:40:21;;;;;;;107.57;29.42;;;;;;;;;;5039698;28;20404;-42
2023/03/02 10:42:47;;;;;;;100.60;29.23;;;;;;;;;;5040008;28;20059;-43
2023/03/02 10:45:26;;;;;;;93.38;27.70;;;;;;;;;;5039846;28;20045;-43
2023/03/02 10:48:03;;;;;;;103.97;27.35;;;;;;;;;;5038519;28;20406;-42
2023/03/02 10:50:30;;;;;;;103.95;28.55;;;;;;;;;;5032243;28;20115;-42
2023/03/02 10:52:56;;;;;;;95.60;27.73;;;;;;;;;;5039682;28;20047;-45
2023/03/02 10:55:27;;;;;;;104.10;29.92;;;;;;;;;;5039008;28;20045;-43
2023/03/02 10:58:18;;;;;;;117.13;29.38;;;;;;;;;;5037074;28;20056;-42
2023/03/02 11:01:05;;;;;;;113.68;25.38;;;;;;;;;;5038424;28;20071;-42
2023/03/02 11:03:31;;;;;;;74.07;23.35;;;;;;;;;;5040021;28;20047;-42
2023/03/02 11:06:09;;;;;;;96.30;25.67;;;;;;;;;;5037080;28;20042;-42
2023/03/02 11:08:36;;;;;;;90.63;26.00;;;;;;;;;;5037875;28;20494;-43
2023/03/02 11:11:03;;;;;;;127.00;30.17;;;;;;;;;;5035473;28;20042;-58
2023/03/02 11:13:34;;;;;;;85.70;23.55;;;;;;;;;;5035790;28;20280;-56
2023/03/02 11:16:01;;;;;;;92.72;24.23;;;;;;;;;;5039560;28;20145;-56
2023/03/02 11:18:34;;;;;;;65.47;20.75;;;;;;;;;;5040827;28;20103;-57
2023/03/02 11:21:05;;;;;;;71.00;21.60;;;;;;;;;;5035088;28;20495;-57
2023/03/02 11:23:36;;;;;;;53.53;18.55;;;;;;;;;;5033849;28;20045;-57
2023/03/02 11:26:23;;;;;;;54.17;18.55;;;;;;;;;;5038897;28;20033;-56
2023/03/02 11:28:56;;;;;;;69.93;20.73;;;;;;;;;;5036158;28;20054;-57
2023/03/02 11:31:27;;;;;;;61.70;21.37;;;;;;;;;;5040863;28;20029;-57
2023/03/02 11:34:00;;;;;;;86.80;24.63;;;;;;;;;;5041967;28;20373;-55
2023/03/02 11:36:55;;;;;;;72.40;20.03;;;;;;;;;;5039767;28;20048;-52
2023/03/02 11:39:25;;;;;;;38.88;11.70;;;;;;;;;;5039126;28;20058;-56
2023/03/02 11:41:52;;;;;;;55.40;12.45;;;;;;;;;;5041219;28;20106;-56
2023/03/02 11:44:19;;;;;;;101.28;16.77;;;;;;;;;;5035548;28;20033;-57
2023/03/02 11:46:52;;;;;;;51.33;15.57;;;;;;;;;;5037459;28;20051;-55
2023/03/02 11:49:36;;;;;;;66.70;18.77;;;;;;;;;;5040963;28;20111;-55
2023/03/02 11:52:02;;;;;;;55.92;17.38;;;;;;;;;;5038897;28;20361;-55
2023/03/02 11:55:05;;;;;;;60.13;17.92;;;;;;;;;;5037583;28;20561;-59
2023/03/02 11:57:32;;;;;;;52.78;15.50;;;;;;;;;;5016043;28;20038;-55
2023/03/02 11:59:59;;;;;;;91.57;19.15;;;;;;;;;;5017550;28;20057;-55
2023/03/02 12:02:26;;;;;;;46.47;15.95;;;;;;;;;;5016457;28;20057;-56
2023/03/02 12:05:07;;;;;;;48.75;14.63;;;;;;;;;;5020581;28;20140;-56
2023/03/02 12:07:33;;;;;;;54.70;13.27;;;;;;;;;;5016220;28;20041;-55
2023/03/02 12:10:05;;;;;;;39.05;11.50;;;;;;;;;;5017512;28;20205;-57
2023/03/02 12:12:57;;;;;;;46.00;11.25;;;;;;;;;;5018349;28;20060;-56
2023/03/02 12:15:27;;;;;;;33.95;11.00;;;;;;;;;;5018306;28;20050;-55
2023/03/02 12:17:54;;;;;;;84.65;14.88;;;;;;;;;;5010213;28;20108;-54
2023/03/02 12:20:23;;;;;;;39.22;10.80;;;;;;;;;;5014458;28;20049;-57
2023/03/02 12:22:50;;;;;;;43.33;12.00;;;;;;;;;;5017355;28;20045;-55
2023/03/02 12:25:19;;;;;;;62.95;13.52;;;;;;;;;;5008680;28;20121;-52
2023/03/02 12:27:47;;;;;;;72.40;14.70;;;;;;;;;;5009773;28;20054;-57
2023/03/02 12:30:22;;;;;;;48.05;12.68;;;;;;;;;;5013612;28;20197;-53
2023/03/02 12:33:12;;;;;;;42.00;12.20;;;;;;;;;;5036768;28;20048;-55
2023/03/02 12:35:38;;;;;;;54.35;12.38;;;;;;;;;;5032326;28;20056;-57
2023/03/02 12:38:40;;;;;;;52.90;13.63;;;;;;;;;;5038433;28;20078;-56
2023/03/02 12:41:16;;;;;;;65.75;13.73;;;;;;;;;;5020897;28;20521;-57
2023/03/02 12:44:03;;;;;;;53.88;14.00;;;;;;;;;;5017413;28;20053;-53
2023/03/02 12:46:33;;;;;;;47.88;14.52;;;;;;;;;;5010617;28;20564;-52
2023/03/02 12:49:18;;;;;;;49.20;15.10;;;;;;;;;;5020211;28;20084;-56
2023/03/02 12:51:53;;;;;;;75.95;16.92;;;;;;;;;;5021856;28;20574;-57
2023/03/02 12:54:22;;;;;;;51.75;14.88;;;;;;;;;;5024947;28;20045;-53
2023/03/02 12:56:48;;;;;;;68.10;17.63;;;;;;;;;;5024672;28;20037;-56
2023/03/02 12:59:25;;;;;;;45.55;13.20;;;;;;;;;;5019719;28;20045;-57
2023/03/02 13:02:02;;;;;;;42.47;12.98;;;;;;;;;;5016707;28;20514;-55
2023/03/02 13:04:29;;;;;;;52.42;14.02;;;;;;;;;;5019239;28;20042;-54
2023/03/02 13:06:55;;;;;;;56.95;13.75;;;;;;;;;;5023419;28;20176;-56
2023/03/02 13:09:22;;;;;;;65.10;14.20;;;;;;;;;;5021963;28;20513;-56
2023/03/02 13:11:53;;;;;;;43.53;15.32;;;;;;;;;;5023049;28;20079;-56
2023/03/02 13:14:19;;;;;;;66.22;14.75;;;;;;;;;;5024583;28;20492;-54
2023/03/02 13:16:56;;;;;;;71.35;14.25;;;;;;;;;;5032883;28;20041;-52
2023/03/02 13:19:23;;;;;;;49.97;13.95;;;;;;;;;;5030872;28;20389;-57
2023/03/02 13:21:50;;;;;;;55.13;13.75;;;;;;;;;;5031192;28;20045;-56
2023/03/02 13:24:29;;;;;;;81.70;16.02;;;;;;;;;;5034836;28;20509;-55
2023/03/02 13:26:57;;;;;;;47.38;13.20;;;;;;;;;;5031363;28;20148;-55
2023/03/02 13:29:29;;;;;;;62.17;13.73;;;;;;;;;;5039917;28;20048;-56
2023/03/02 13:31:57;;;;;;;49.30;13.23;;;;;;;;;;5034994;28;20037;-57
2023/03/02 13:34:25;;;;;;;55.83;13.43;;;;;;;;;;5036314;28;20132;-55
2023/03/02 13:36:52;;;;;;;88.43;16.23;;;;;;;;;;5037157;28;20046;-59
2023/03/02 13:39:25;;;;;;;40.22;11.27;;;;;;;;;;5038560;28;20042;-55
2023/03/02 13:41:54;;;;;;;46.08;12.45;;;;;;;;;;5035465;28;20045;-56
2023/03/02 13:44:25;;;;;;;78.43;14.65;;;;;;;;;;5035920;28;20137;-55
2023/03/02 13:46:51;;;;;;;62.97;16.17;;;;;;;;;;5038723;28;20052;-57
2023/03/02 13:49:25;;;;;;;58.88;12.50;;;;;;;;;;5036365;28;20063;-57
2023/03/02 13:51:56;;;;;;;50.28;11.98;;;;;;;;;;5030972;28;20050;-57
2023/03/02 13:54:25;;;;;;;52.33;12.27;;;;;;;;;;5036227;28;20380;-56
2023/03/02 13:56:52;;;;;;;57.42;12.10;;;;;;;;;;5038289;28;20037;-57
2023/03/02 13:59:20;;;;;;;63.45;13.18;;;;;;;;;;5034385;28;20042;-57
2023/03/02 14:01:46;;;;;;;64.20;13.90;;;;;;;;;;5037816;28;20037;-54
2023/03/02 14:04:16;;;;;;;77.25;14.73;;;;;;;;;;5037823;28;20103;-57
2023/03/02 14:06:43;;;;;;;65.18;18.20;;;;;;;;;;5038055;28;20064;-56
2023/03/02 14:09:10;;;;;;;66.95;14.05;;;;;;;;;;5037414;28;20053;-57
2023/03/02 14:11:38;;;;;;;62.42;12.27;;;;;;;;;;5042373;28;20045;-58
2023/03/02 14:14:06;;;;;;;42.47;9.90;;;;;;;;;;5039090;28;20418;-58
2023/03/02 14:16:35;;;;;;;40.00;10.25;;;;;;;;;;5033349;28;20098;-57
2023/03/02 14:19:02;;;;;;;47.83;10.32;;;;;;;;;;5030347;28;20064;-56
2023/03/02 14:21:28;;;;;;;38.58;9.70;;;;;;;;;;5036562;28;20399;-55